sensor_id;sensor_type;location;lat;lon;timestamp;temperature;humidity
10788;DHT22;5446;50.826;4.380;2022-11-30T00:00:17;5.70;99.90
10788;DHT22;5446;50.826;4.380;2022-11-30T00:02:43;5.70;99.90
10788;DHT22;5446;50.826;4.380;2022-11-30T00:05:09;5.70;99.90
10788;DHT22;5446;50.826;4.380;2022-11-30T00:07:35;5.80;99.90
10788;DHT22;5446;50.826;4.380;2022-11-30T00:10:01;5.80;99.90
10788;DHT22;5446;50.826;4.380;2022-11-30T00:12:28;5.70;99.90
10788;DHT22;5446;50.826;4.380;2022-11-30T00:14:53;5.80;99.90
10788;DHT22;5446;50.826;4.380;2022-11-30T00:17:19;5.70;99.90
10788;DHT22;5446;50.826;4.380;2022-11-30T00:19:45;5.70;99.90
10788;DHT22;5446;50.826;4.380;2022-11-30T00:22:11;5.70;99.90
10788;DHT22;5446;50.826;4.380;2022-11-30T00:24:37;5.60;99.90
10788;DHT22;5446;50.826;4.380;2022-11-30T00:27:03;5.70;99.90
10788;DHT22;5446;50.826;4.380;2022-11-30T00:29:28;5.60;99.90
10788;DHT22;5446;50.826;4.380;2022-11-30T00:31:55;5.60;99.90
10788;DHT22;5446;50.826;4.380;2022-11-30T00:34:20;5.70;99.90
10788;DHT22;5446;50.826;4.380;2022-11-30T00:36:46;5.60;99.90
10788;DHT22;5446;50.826;4.380;2022-11-30T00:39:12;5.60;99.90
10788;DHT22;5446;50.826;4.380;2022-11-30T00:41:38;5.60;99.90
10788;DHT22;5446;50.826;4.380;2022-11-30T00:44:03;5.70;99.90
10788;DHT22;5446;50.826;4.380;2022-11-30T00:46:29;5.70;99.90
10788;DHT22;5446;50.826;4.380;2022-11-30T00:48:55;5.80;99.90
10788;DHT22;5446;50.826;4.380;2022-11-30T00:51:21;5.90;99.90
10788;DHT22;5446;50.826;4.380;2022-11-30T00:53:47;5.80;99.90
10788;DHT22;5446;50.826;4.380;2022-11-30T00:56:13;5.80;99.90
10788;DHT22;5446;50.826;4.380;2022-11-30T00:58:39;5.80;99.90
10788;DHT22;5446;50.826;4.380;2022-11-30T01:01:06;5.90;99.90
10788;DHT22;5446;50.826;4.380;2022-11-30T01:03:32;5.90;99.90
10788;DHT22;5446;50.826;4.380;2022-11-30T01:06:07;5.90;99.90
10788;DHT22;5446;50.826;4.380;2022-11-30T01:08:34;5.90;99.90
10788;DHT22;5446;50.826;4.380;2022-11-30T01:11:22;5.90;99.90
10788;DHT22;5446;50.826;4.380;2022-11-30T01:13:49;5.90;99.90
10788;DHT22;5446;50.826;4.380;2022-11-30T01:16:20;6.00;99.90
10788;DHT22;5446;50.826;4.380;2022-11-30T01:18:46;6.10;99.90
10788;DHT22;5446;50.826;4.380;2022-11-30T01:21:15;6.00;99.90
10788;DHT22;5446;50.826;4.380;2022-11-30T01:23:41;6.10;99.90
10788;DHT22;5446;50.826;4.380;2022-11-30T01:26:08;6.20;99.90
10788;DHT22;5446;50.826;4.380;2022-11-30T01:28:34;6.10;99.90
10788;DHT22;5446;50.826;4.380;2022-11-30T01:31:05;6.00;99.90
10788;DHT22;5446;50.826;4.380;2022-11-30T01:33:31;6.00;99.90
10788;DHT22;5446;50.826;4.380;2022-11-30T01:36:11;6.00;99.90
10788;DHT22;5446;50.826;4.380;2022-11-30T01:38:40;6.10;99.90
10788;DHT22;5446;50.826;4.380;2022-11-30T01:41:10;6.10;99.90
10788;DHT22;5446;50.826;4.380;2022-11-30T01:43:41;6.10;99.90
10788;DHT22;5446;50.826;4.380;2022-11-30T01:46:34;6.10;99.90
10788;DHT22;5446;50.826;4.380;2022-11-30T01:51:48;6.20;99.90
10788;DHT22;5446;50.826;4.380;2022-11-30T01:54:17;6.10;99.90
10788;DHT22;5446;50.826;4.380;2022-11-30T01:56:54;6.00;99.90
10788;DHT22;5446;50.826;4.380;2022-11-30T01:59:22;6.00;99.90
10788;DHT22;5446;50.826;4.380;2022-11-30T02:01:49;6.00;99.90
10788;DHT22;5446;50.826;4.380;2022-11-30T02:06:45;6.00;99.90
10788;DHT22;5446;50.826;4.380;2022-11-30T02:09:12;5.90;99.90
10788;DHT22;5446;50.826;4.380;2022-11-30T02:11:39;5.90;99.90
10788;DHT22;5446;50.826;4.380;2022-11-30T02:25:35;5.90;99.90
10788;DHT22;5446;50.826;4.380;2022-11-30T02:28:37;6.10;99.90
10788;DHT22;5446;50.826;4.380;2022-11-30T02:31:09;6.00;99.90
10788;DHT22;5446;50.826;4.380;2022-11-30T02:33:37;5.90;99.90
10788;DHT22;5446;50.826;4.380;2022-11-30T02:36:05;5.80;99.90
10788;DHT22;5446;50.826;4.380;2022-11-30T02:38:32;5.80;99.90
10788;DHT22;5446;50.826;4.380;2022-11-30T02:40:58;5.80;99.90
10788;DHT22;5446;50.826;4.380;2022-11-30T02:43:25;5.80;99.90
10788;DHT22;5446;50.826;4.380;2022-11-30T02:46:01;5.80;99.90
10788;DHT22;5446;50.826;4.380;2022-11-30T02:48:48;5.90;99.90
10788;DHT22;5446;50.826;4.380;2022-11-30T02:51:19;5.80;99.90
10788;DHT22;5446;50.826;4.380;2022-11-30T02:53:46;5.70;99.90
10788;DHT22;5446;50.826;4.380;2022-11-30T02:56:12;5.70;99.90
10788;DHT22;5446;50.826;4.380;2022-11-30T02:58:38;5.80;99.90
10788;DHT22;5446;50.826;4.380;2022-11-30T03:01:04;5.80;99.90
10788;DHT22;5446;50.826;4.380;2022-11-30T03:03:30;5.90;99.90
10788;DHT22;5446;50.826;4.380;2022-11-30T03:05:56;5.90;99.90
10788;DHT22;5446;50.826;4.380;2022-11-30T03:08:22;5.80;99.90
10788;DHT22;5446;50.826;4.380;2022-11-30T03:10:48;5.90;99.90
10788;DHT22;5446;50.826;4.380;2022-11-30T03:13:14;5.80;99.90
10788;DHT22;5446;50.826;4.380;2022-11-30T03:15:39;5.90;99.90
10788;DHT22;5446;50.826;4.380;2022-11-30T03:18:05;5.80;99.90
10788;DHT22;5446;50.826;4.380;2022-11-30T03:20:31;5.80;99.90
10788;DHT22;5446;50.826;4.380;2022-11-30T03:23:01;5.80;99.90
10788;DHT22;5446;50.826;4.380;2022-11-30T03:25:28;5.80;99.90
10788;DHT22;5446;50.826;4.380;2022-11-30T03:27:54;5.80;99.90
10788;DHT22;5446;50.826;4.380;2022-11-30T03:30:20;5.80;99.90
10788;DHT22;5446;50.826;4.380;2022-11-30T03:32:46;5.80;99.90
10788;DHT22;5446;50.826;4.380;2022-11-30T03:35:11;5.80;99.90
10788;DHT22;5446;50.826;4.380;2022-11-30T03:37:37;5.80;99.90
10788;DHT22;5446;50.826;4.380;2022-11-30T03:40:03;5.80;99.90
10788;DHT22;5446;50.826;4.380;2022-11-30T03:42:29;5.80;99.90
10788;DHT22;5446;50.826;4.380;2022-11-30T03:44:55;5.80;99.90
10788;DHT22;5446;50.826;4.380;2022-11-30T03:47:21;5.90;99.90
10788;DHT22;5446;50.826;4.380;2022-11-30T03:49:47;5.90;99.90
10788;DHT22;5446;50.826;4.380;2022-11-30T03:52:12;5.90;99.90
10788;DHT22;5446;50.826;4.380;2022-11-30T03:54:38;5.90;99.90
10788;DHT22;5446;50.826;4.380;2022-11-30T03:57:04;5.80;99.90
10788;DHT22;5446;50.826;4.380;2022-11-30T03:59:30;5.90;99.90
10788;DHT22;5446;50.826;4.380;2022-11-30T04:01:56;5.80;99.90
10788;DHT22;5446;50.826;4.380;2022-11-30T04:04:21;5.70;99.90
10788;DHT22;5446;50.826;4.380;2022-11-30T04:06:47;5.80;99.90
10788;DHT22;5446;50.826;4.380;2022-11-30T04:09:13;5.80;99.90
10788;DHT22;5446;50.826;4.380;2022-11-30T04:11:38;5.80;99.90
10788;DHT22;5446;50.826;4.380;2022-11-30T04:14:04;5.70;99.90
10788;DHT22;5446;50.826;4.380;2022-11-30T04:16:30;5.80;99.90
10788;DHT22;5446;50.826;4.380;2022-11-30T04:18:56;5.70;99.90
10788;DHT22;5446;50.826;4.380;2022-11-30T04:21:22;5.70;99.90
10788;DHT22;5446;50.826;4.380;2022-11-30T04:23:48;5.70;99.90
10788;DHT22;5446;50.826;4.380;2022-11-30T04:26:15;5.70;99.90
10788;DHT22;5446;50.826;4.380;2022-11-30T04:28:41;5.70;99.90
10788;DHT22;5446;50.826;4.380;2022-11-30T04:31:08;5.70;99.90
10788;DHT22;5446;50.826;4.380;2022-11-30T04:33:34;5.60;99.90
10788;DHT22;5446;50.826;4.380;2022-11-30T04:36:03;5.70;99.90
10788;DHT22;5446;50.826;4.380;2022-11-30T04:38:29;5.60;99.90
10788;DHT22;5446;50.826;4.380;2022-11-30T04:40:55;5.60;99.90
10788;DHT22;5446;50.826;4.380;2022-11-30T04:43:21;5.60;99.90
10788;DHT22;5446;50.826;4.380;2022-11-30T04:45:47;5.60;99.90
10788;DHT22;5446;50.826;4.380;2022-11-30T04:48:16;5.60;99.90
10788;DHT22;5446;50.826;4.380;2022-11-30T04:50:43;5.70;99.90
10788;DHT22;5446;50.826;4.380;2022-11-30T04:53:10;5.70;99.90
10788;DHT22;5446;50.826;4.380;2022-11-30T04:55:37;5.70;99.90
10788;DHT22;5446;50.826;4.380;2022-11-30T04:58:03;5.70;99.90
10788;DHT22;5446;50.826;4.380;2022-11-30T05:00:29;5.70;99.90
10788;DHT22;5446;50.826;4.380;2022-11-30T05:02:55;5.60;99.90
10788;DHT22;5446;50.826;4.380;2022-11-30T05:05:22;5.60;99.90
10788;DHT22;5446;50.826;4.380;2022-11-30T05:07:55;5.60;99.90
10788;DHT22;5446;50.826;4.380;2022-11-30T05:10:21;5.60;99.90
10788;DHT22;5446;50.826;4.380;2022-11-30T05:12:47;5.60;99.90
10788;DHT22;5446;50.826;4.380;2022-11-30T05:15:15;5.50;99.90
10788;DHT22;5446;50.826;4.380;2022-11-30T05:17:41;5.50;99.90
10788;DHT22;5446;50.826;4.380;2022-11-30T05:20:08;5.60;99.90
10788;DHT22;5446;50.826;4.380;2022-11-30T05:22:34;5.60;99.90
10788;DHT22;5446;50.826;4.380;2022-11-30T05:25:00;5.50;99.90
10788;DHT22;5446;50.826;4.380;2022-11-30T05:27:26;5.40;99.90
10788;DHT22;5446;50.826;4.380;2022-11-30T05:29:52;5.50;99.90
10788;DHT22;5446;50.826;4.380;2022-11-30T05:32:18;5.60;99.90
10788;DHT22;5446;50.826;4.380;2022-11-30T05:34:44;5.50;99.90
10788;DHT22;5446;50.826;4.380;2022-11-30T05:37:09;5.50;99.90
10788;DHT22;5446;50.826;4.380;2022-11-30T05:39:35;5.60;99.90
10788;DHT22;5446;50.826;4.380;2022-11-30T05:42:01;5.60;99.90
10788;DHT22;5446;50.826;4.380;2022-11-30T05:44:27;5.60;99.90
10788;DHT22;5446;50.826;4.380;2022-11-30T05:46:53;5.60;99.90
10788;DHT22;5446;50.826;4.380;2022-11-30T05:49:22;5.70;99.90
10788;DHT22;5446;50.826;4.380;2022-11-30T05:51:47;5.80;99.90
10788;DHT22;5446;50.826;4.380;2022-11-30T05:54:13;5.80;99.90
10788;DHT22;5446;50.826;4.380;2022-11-30T05:56:40;5.80;99.90
10788;DHT22;5446;50.826;4.380;2022-11-30T05:59:05;5.80;99.90
10788;DHT22;5446;50.826;4.380;2022-11-30T06:01:31;5.80;99.90
10788;DHT22;5446;50.826;4.380;2022-11-30T06:03:57;5.80;99.90
10788;DHT22;5446;50.826;4.380;2022-11-30T06:06:22;5.70;99.90
10788;DHT22;5446;50.826;4.380;2022-11-30T06:08:49;5.70;99.90
10788;DHT22;5446;50.826;4.380;2022-11-30T06:11:16;5.70;99.90
10788;DHT22;5446;50.826;4.380;2022-11-30T06:13:42;5.70;99.90
10788;DHT22;5446;50.826;4.380;2022-11-30T06:16:09;5.70;99.90
10788;DHT22;5446;50.826;4.380;2022-11-30T06:18:36;5.70;99.90
10788;DHT22;5446;50.826;4.380;2022-11-30T06:21:08;5.60;99.90
10788;DHT22;5446;50.826;4.380;2022-11-30T06:23:35;5.70;99.90
10788;DHT22;5446;50.826;4.380;2022-11-30T06:26:05;5.70;99.90
10788;DHT22;5446;50.826;4.380;2022-11-30T06:28:31;5.70;99.90
10788;DHT22;5446;50.826;4.380;2022-11-30T06:30:59;5.80;99.90
10788;DHT22;5446;50.826;4.380;2022-11-30T06:33:26;5.90;99.90
10788;DHT22;5446;50.826;4.380;2022-11-30T06:35:52;6.00;99.90
10788;DHT22;5446;50.826;4.380;2022-11-30T06:38:19;6.00;99.90
10788;DHT22;5446;50.826;4.380;2022-11-30T06:40:45;5.90;99.90
10788;DHT22;5446;50.826;4.380;2022-11-30T06:43:12;5.90;99.90
10788;DHT22;5446;50.826;4.380;2022-11-30T06:45:38;5.90;99.90
10788;DHT22;5446;50.826;4.380;2022-11-30T06:48:04;5.90;99.90
10788;DHT22;5446;50.826;4.380;2022-11-30T06:50:31;5.90;99.90
10788;DHT22;5446;50.826;4.380;2022-11-30T06:52:57;6.00;99.90
10788;DHT22;5446;50.826;4.380;2022-11-30T06:55:24;6.00;99.90
10788;DHT22;5446;50.826;4.380;2022-11-30T06:57:49;5.90;99.90
10788;DHT22;5446;50.826;4.380;2022-11-30T07:00:15;6.00;99.90
10788;DHT22;5446;50.826;4.380;2022-11-30T07:02:41;6.00;99.90
10788;DHT22;5446;50.826;4.380;2022-11-30T07:05:07;6.00;99.90
10788;DHT22;5446;50.826;4.380;2022-11-30T07:07:33;6.00;99.90
10788;DHT22;5446;50.826;4.380;2022-11-30T07:09:59;5.90;99.90
10788;DHT22;5446;50.826;4.380;2022-11-30T07:12:25;5.90;99.90
10788;DHT22;5446;50.826;4.380;2022-11-30T07:14:52;6.00;99.90
10788;DHT22;5446;50.826;4.380;2022-11-30T07:17:21;6.00;99.90
10788;DHT22;5446;50.826;4.380;2022-11-30T07:19:47;6.00;99.90
10788;DHT22;5446;50.826;4.380;2022-11-30T07:22:13;6.00;99.90
10788;DHT22;5446;50.826;4.380;2022-11-30T07:24:39;6.10;99.90
10788;DHT22;5446;50.826;4.380;2022-11-30T07:27:23;6.00;99.90
10788;DHT22;5446;50.826;4.380;2022-11-30T07:29:49;6.10;99.90
10788;DHT22;5446;50.826;4.380;2022-11-30T07:32:17;6.20;99.90
10788;DHT22;5446;50.826;4.380;2022-11-30T07:34:43;6.20;99.90
10788;DHT22;5446;50.826;4.380;2022-11-30T07:37:09;6.20;99.90
10788;DHT22;5446;50.826;4.380;2022-11-30T07:39:36;6.10;99.90
10788;DHT22;5446;50.826;4.380;2022-11-30T07:42:02;6.10;99.90
10788;DHT22;5446;50.826;4.380;2022-11-30T07:44:28;6.20;99.90
10788;DHT22;5446;50.826;4.380;2022-11-30T07:46:54;6.10;99.90
10788;DHT22;5446;50.826;4.380;2022-11-30T07:49:19;6.10;99.90
10788;DHT22;5446;50.826;4.380;2022-11-30T07:51:45;6.20;99.90
10788;DHT22;5446;50.826;4.380;2022-11-30T07:54:11;6.00;99.90
10788;DHT22;5446;50.826;4.380;2022-11-30T07:56:36;6.00;99.90
10788;DHT22;5446;50.826;4.380;2022-11-30T07:59:02;6.00;99.90
10788;DHT22;5446;50.826;4.380;2022-11-30T08:01:30;6.10;99.90
10788;DHT22;5446;50.826;4.380;2022-11-30T08:03:57;6.10;99.90
10788;DHT22;5446;50.826;4.380;2022-11-30T08:06:25;6.20;99.90
10788;DHT22;5446;50.826;4.380;2022-11-30T08:08:53;6.20;99.90
10788;DHT22;5446;50.826;4.380;2022-11-30T08:11:26;6.20;99.90
10788;DHT22;5446;50.826;4.380;2022-11-30T08:13:52;6.20;99.90
10788;DHT22;5446;50.826;4.380;2022-11-30T08:16:21;6.30;99.90
10788;DHT22;5446;50.826;4.380;2022-11-30T08:18:47;6.30;99.90
10788;DHT22;5446;50.826;4.380;2022-11-30T08:21:14;6.30;99.90
10788;DHT22;5446;50.826;4.380;2022-11-30T08:23:42;6.30;99.90
10788;DHT22;5446;50.826;4.380;2022-11-30T08:26:16;6.30;99.90
10788;DHT22;5446;50.826;4.380;2022-11-30T08:28:43;6.40;99.90
10788;DHT22;5446;50.826;4.380;2022-11-30T08:31:13;6.40;99.90
10788;DHT22;5446;50.826;4.380;2022-11-30T08:33:39;6.40;99.90
10788;DHT22;5446;50.826;4.380;2022-11-30T08:36:14;6.40;99.90
10788;DHT22;5446;50.826;4.380;2022-11-30T08:38:41;6.40;99.90
10788;DHT22;5446;50.826;4.380;2022-11-30T08:41:08;6.40;99.90
10788;DHT22;5446;50.826;4.380;2022-11-30T08:43:34;6.40;99.90
10788;DHT22;5446;50.826;4.380;2022-11-30T08:46:06;6.50;99.90
10788;DHT22;5446;50.826;4.380;2022-11-30T08:48:33;6.60;99.90
10788;DHT22;5446;50.826;4.380;2022-11-30T08:51:07;6.60;99.90
10788;DHT22;5446;50.826;4.380;2022-11-30T08:53:34;6.60;99.90
10788;DHT22;5446;50.826;4.380;2022-11-30T08:56:02;6.60;99.90
10788;DHT22;5446;50.826;4.380;2022-11-30T08:58:33;6.60;99.90
10788;DHT22;5446;50.826;4.380;2022-11-30T09:01:06;6.70;99.90
10788;DHT22;5446;50.826;4.380;2022-11-30T09:03:31;6.70;99.90
10788;DHT22;5446;50.826;4.380;2022-11-30T09:06:25;6.60;99.90
10788;DHT22;5446;50.826;4.380;2022-11-30T09:08:51;6.70;99.90
10788;DHT22;5446;50.826;4.380;2022-11-30T09:11:24;6.70;99.90
10788;DHT22;5446;50.826;4.380;2022-11-30T09:13:52;6.70;99.90
10788;DHT22;5446;50.826;4.380;2022-11-30T09:16:18;6.60;99.90
10788;DHT22;5446;50.826;4.380;2022-11-30T09:18:45;6.60;99.90
10788;DHT22;5446;50.826;4.380;2022-11-30T09:21:14;6.70;99.90
10788;DHT22;5446;50.826;4.380;2022-11-30T09:23:40;6.80;99.90
10788;DHT22;5446;50.826;4.380;2022-11-30T09:26:08;6.90;99.90
10788;DHT22;5446;50.826;4.380;2022-11-30T09:28:35;6.80;99.90
10788;DHT22;5446;50.826;4.380;2022-11-30T09:31:11;6.70;99.90
10788;DHT22;5446;50.826;4.380;2022-11-30T09:33:37;6.80;99.90
10788;DHT22;5446;50.826;4.380;2022-11-30T09:36:05;6.80;99.90
10788;DHT22;5446;50.826;4.380;2022-11-30T09:38:31;6.90;99.90
10788;DHT22;5446;50.826;4.380;2022-11-30T09:41:00;6.90;99.90
10788;DHT22;5446;50.826;4.380;2022-11-30T09:44:08;6.90;99.90
10788;DHT22;5446;50.826;4.380;2022-11-30T09:49:33;7.00;99.90
10788;DHT22;5446;50.826;4.380;2022-11-30T09:52:01;7.10;99.90
10788;DHT22;5446;50.826;4.380;2022-11-30T09:54:37;7.30;99.90
10788;DHT22;5446;50.826;4.380;2022-11-30T09:59:50;7.40;99.90
10788;DHT22;5446;50.826;4.380;2022-11-30T10:02:17;7.40;99.90
10788;DHT22;5446;50.826;4.380;2022-11-30T10:04:43;7.30;99.90
10788;DHT22;5446;50.826;4.380;2022-11-30T10:12:58;7.20;99.90
10788;DHT22;5446;50.826;4.380;2022-11-30T10:15:33;7.40;99.90
10788;DHT22;5446;50.826;4.380;2022-11-30T10:26:04;7.60;99.90
10788;DHT22;5446;50.826;4.380;2022-11-30T10:28:49;7.40;99.90
10788;DHT22;5446;50.826;4.380;2022-11-30T10:31:18;7.50;99.90
10788;DHT22;5446;50.826;4.380;2022-11-30T10:33:49;7.60;99.90
10788;DHT22;5446;50.826;4.380;2022-11-30T10:36:44;7.70;99.90
10788;DHT22;5446;50.826;4.380;2022-11-30T10:42:10;7.60;99.90
10788;DHT22;5446;50.826;4.380;2022-11-30T10:44:43;7.60;99.90
10788;DHT22;5446;50.826;4.380;2022-11-30T10:47:20;7.60;99.90
10788;DHT22;5446;50.826;4.380;2022-11-30T10:49:50;7.60;99.90
10788;DHT22;5446;50.826;4.380;2022-11-30T10:52:30;7.60;99.90
10788;DHT22;5446;50.826;4.380;2022-11-30T10:54:57;7.50;99.90
10788;DHT22;5446;50.826;4.380;2022-11-30T10:57:29;7.70;99.90
10788;DHT22;5446;50.826;4.380;2022-11-30T10:59:57;7.90;99.90
10788;DHT22;5446;50.826;4.380;2022-11-30T11:02:50;8.00;99.90
10788;DHT22;5446;50.826;4.380;2022-11-30T11:05:28;8.10;99.90
10788;DHT22;5446;50.826;4.380;2022-11-30T11:08:21;8.20;99.90
10788;DHT22;5446;50.826;4.380;2022-11-30T11:10:49;8.10;99.90
10788;DHT22;5446;50.826;4.380;2022-11-30T11:13:41;8.00;99.90
10788;DHT22;5446;50.826;4.380;2022-11-30T11:16:12;8.00;99.90
10788;DHT22;5446;50.826;4.380;2022-11-30T11:18:58;8.10;99.90
10788;DHT22;5446;50.826;4.380;2022-11-30T11:21:24;8.20;99.90
10788;DHT22;5446;50.826;4.380;2022-11-30T11:23:52;8.20;99.90
10788;DHT22;5446;50.826;4.380;2022-11-30T11:26:26;8.30;99.90
10788;DHT22;5446;50.826;4.380;2022-11-30T11:28:54;8.40;99.90
10788;DHT22;5446;50.826;4.380;2022-11-30T11:33:58;8.20;99.90
10788;DHT22;5446;50.826;4.380;2022-11-30T11:36:26;8.30;99.90
10788;DHT22;5446;50.826;4.380;2022-11-30T11:38:52;8.40;99.90
10788;DHT22;5446;50.826;4.380;2022-11-30T11:41:19;8.30;99.90
10788;DHT22;5446;50.826;4.380;2022-11-30T11:44:16;8.20;99.90
10788;DHT22;5446;50.826;4.380;2022-11-30T11:46:57;8.20;99.90
10788;DHT22;5446;50.826;4.380;2022-11-30T11:49:29;8.20;99.90
10788;DHT22;5446;50.826;4.380;2022-11-30T11:54:42;8.10;99.90
10788;DHT22;5446;50.826;4.380;2022-11-30T11:57:14;8.10;99.90
10788;DHT22;5446;50.826;4.380;2022-11-30T12:05:35;8.20;99.90
10788;DHT22;5446;50.826;4.380;2022-11-30T12:10:59;8.20;99.90
10788;DHT22;5446;50.826;4.380;2022-11-30T12:13:47;8.20;99.90
10788;DHT22;5446;50.826;4.380;2022-11-30T12:24:37;8.10;99.90
10788;DHT22;5446;50.826;4.380;2022-11-30T12:33:23;8.00;99.90
10788;DHT22;5446;50.826;4.380;2022-11-30T12:38:36;8.10;99.90
10788;DHT22;5446;50.826;4.380;2022-11-30T12:57:42;8.30;99.90
10788;DHT22;5446;50.826;4.380;2022-11-30T13:00:20;8.30;99.90
10788;DHT22;5446;50.826;4.380;2022-11-30T13:05:56;8.40;99.90
10788;DHT22;5446;50.826;4.380;2022-11-30T13:11:20;8.40;99.90
10788;DHT22;5446;50.826;4.380;2022-11-30T13:13:54;8.50;99.90
10788;DHT22;5446;50.826;4.380;2022-11-30T13:16:22;8.40;99.90
10788;DHT22;5446;50.826;4.380;2022-11-30T13:18:50;8.50;99.90
10788;DHT22;5446;50.826;4.380;2022-11-30T13:21:31;8.60;99.90
10788;DHT22;5446;50.826;4.380;2022-11-30T13:24:12;8.70;99.90
10788;DHT22;5446;50.826;4.380;2022-11-30T13:26:48;8.90;99.90
10788;DHT22;5446;50.826;4.380;2022-11-30T13:34:30;8.80;99.90
10788;DHT22;5446;50.826;4.380;2022-11-30T13:39:54;8.60;99.90
10788;DHT22;5446;50.826;4.380;2022-11-30T13:42:33;8.70;99.90
10788;DHT22;5446;50.826;4.380;2022-11-30T13:45:18;8.70;99.90
10788;DHT22;5446;50.826;4.380;2022-11-30T13:47:49;8.70;99.90
10788;DHT22;5446;50.826;4.380;2022-11-30T13:58:16;8.80;99.90
10788;DHT22;5446;50.826;4.380;2022-11-30T14:00:58;8.70;99.90
10788;DHT22;5446;50.826;4.380;2022-11-30T14:03:29;8.60;99.90
10788;DHT22;5446;50.826;4.380;2022-11-30T14:05:58;8.70;99.90
10788;DHT22;5446;50.826;4.380;2022-11-30T14:08:33;8.60;99.90
10788;DHT22;5446;50.826;4.380;2022-11-30T14:13:45;8.70;99.90
10788;DHT22;5446;50.826;4.380;2022-11-30T14:16:23;8.70;99.90
10788;DHT22;5446;50.826;4.380;2022-11-30T14:18:50;8.70;99.90
10788;DHT22;5446;50.826;4.380;2022-11-30T14:21:31;8.50;99.90
10788;DHT22;5446;50.826;4.380;2022-11-30T14:24:05;8.40;99.90
10788;DHT22;5446;50.826;4.380;2022-11-30T14:26:38;8.30;99.90
10788;DHT22;5446;50.826;4.380;2022-11-30T14:29:11;8.30;99.90
10788;DHT22;5446;50.826;4.380;2022-11-30T14:34:16;8.30;99.90
10788;DHT22;5446;50.826;4.380;2022-11-30T14:36:47;8.30;99.90
10788;DHT22;5446;50.826;4.380;2022-11-30T14:39:32;8.30;99.90
10788;DHT22;5446;50.826;4.380;2022-11-30T14:42:00;8.20;99.90
10788;DHT22;5446;50.826;4.380;2022-11-30T14:44:26;8.30;99.90
10788;DHT22;5446;50.826;4.380;2022-11-30T14:46:52;8.30;99.90
10788;DHT22;5446;50.826;4.380;2022-11-30T14:49:22;8.20;99.90
10788;DHT22;5446;50.826;4.380;2022-11-30T14:51:51;8.20;99.90
10788;DHT22;5446;50.826;4.380;2022-11-30T14:59:58;8.10;99.90
10788;DHT22;5446;50.826;4.380;2022-11-30T15:02:35;8.10;99.90
10788;DHT22;5446;50.826;4.380;2022-11-30T15:05:07;8.10;99.90
10788;DHT22;5446;50.826;4.380;2022-11-30T15:07:37;8.00;99.90
10788;DHT22;5446;50.826;4.380;2022-11-30T15:10:10;7.90;99.90
10788;DHT22;5446;50.826;4.380;2022-11-30T15:12:37;7.90;99.90
10788;DHT22;5446;50.826;4.380;2022-11-30T15:15:19;7.80;99.90
10788;DHT22;5446;50.826;4.380;2022-11-30T15:17:56;7.80;99.90
10788;DHT22;5446;50.826;4.380;2022-11-30T15:20:30;7.80;99.90
10788;DHT22;5446;50.826;4.380;2022-11-30T15:22:57;7.80;99.90
10788;DHT22;5446;50.826;4.380;2022-11-30T15:25:29;7.80;99.90
10788;DHT22;5446;50.826;4.380;2022-11-30T15:27:56;7.80;99.90
10788;DHT22;5446;50.826;4.380;2022-11-30T15:30:23;7.70;99.90
10788;DHT22;5446;50.826;4.380;2022-11-30T15:32:50;7.70;99.90
10788;DHT22;5446;50.826;4.380;2022-11-30T15:35:22;7.60;99.90
10788;DHT22;5446;50.826;4.380;2022-11-30T15:37:50;7.60;99.90
10788;DHT22;5446;50.826;4.380;2022-11-30T15:40:31;7.50;99.90
10788;DHT22;5446;50.826;4.380;2022-11-30T15:42:57;7.50;99.90
10788;DHT22;5446;50.826;4.380;2022-11-30T15:45:25;7.50;99.90
10788;DHT22;5446;50.826;4.380;2022-11-30T15:47:53;7.50;99.90
10788;DHT22;5446;50.826;4.380;2022-11-30T15:55:46;7.40;99.90
10788;DHT22;5446;50.826;4.380;2022-11-30T15:58:33;7.40;99.90
10788;DHT22;5446;50.826;4.380;2022-11-30T16:03:32;7.40;99.90
10788;DHT22;5446;50.826;4.380;2022-11-30T16:05:59;7.40;99.90
10788;DHT22;5446;50.826;4.380;2022-11-30T16:08:25;7.40;99.90
10788;DHT22;5446;50.826;4.380;2022-11-30T16:10:51;7.30;99.90
10788;DHT22;5446;50.826;4.380;2022-11-30T16:13:19;7.30;99.90
10788;DHT22;5446;50.826;4.380;2022-11-30T16:15:47;7.30;99.90
10788;DHT22;5446;50.826;4.380;2022-11-30T16:18:25;7.40;99.90
10788;DHT22;5446;50.826;4.380;2022-11-30T16:20:54;7.30;99.90
10788;DHT22;5446;50.826;4.380;2022-11-30T16:23:20;7.30;99.90
10788;DHT22;5446;50.826;4.380;2022-11-30T16:25:48;7.20;99.90
10788;DHT22;5446;50.826;4.380;2022-11-30T16:28:15;7.30;99.90
10788;DHT22;5446;50.826;4.380;2022-11-30T16:30:41;7.30;99.90
10788;DHT22;5446;50.826;4.380;2022-11-30T16:33:15;7.30;99.90
10788;DHT22;5446;50.826;4.380;2022-11-30T16:35:56;7.40;99.90
10788;DHT22;5446;50.826;4.380;2022-11-30T16:38:23;7.40;99.90
10788;DHT22;5446;50.826;4.380;2022-11-30T16:40:50;7.40;99.90
10788;DHT22;5446;50.826;4.380;2022-11-30T16:43:18;7.40;99.90
10788;DHT22;5446;50.826;4.380;2022-11-30T16:45:44;7.40;99.90
10788;DHT22;5446;50.826;4.380;2022-11-30T16:48:11;7.40;99.90
10788;DHT22;5446;50.826;4.380;2022-11-30T16:50:38;7.40;99.90
10788;DHT22;5446;50.826;4.380;2022-11-30T16:53:05;7.40;99.90
10788;DHT22;5446;50.826;4.380;2022-11-30T16:55:36;7.40;99.90
10788;DHT22;5446;50.826;4.380;2022-11-30T16:58:02;7.40;99.90
10788;DHT22;5446;50.826;4.380;2022-11-30T17:00:28;7.40;99.90
10788;DHT22;5446;50.826;4.380;2022-11-30T17:02:57;7.40;99.90
10788;DHT22;5446;50.826;4.380;2022-11-30T17:05:25;7.40;99.90
10788;DHT22;5446;50.826;4.380;2022-11-30T17:07:51;7.40;99.90
10788;DHT22;5446;50.826;4.380;2022-11-30T17:10:17;7.50;99.90
10788;DHT22;5446;50.826;4.380;2022-11-30T17:12:43;7.50;99.90
10788;DHT22;5446;50.826;4.380;2022-11-30T17:15:14;7.40;99.90
10788;DHT22;5446;50.826;4.380;2022-11-30T17:17:40;7.40;99.90
10788;DHT22;5446;50.826;4.380;2022-11-30T17:20:07;7.40;99.90
10788;DHT22;5446;50.826;4.380;2022-11-30T17:22:32;7.40;99.90
10788;DHT22;5446;50.826;4.380;2022-11-30T17:25:02;7.30;99.90
10788;DHT22;5446;50.826;4.380;2022-11-30T17:27:27;7.30;99.90
10788;DHT22;5446;50.826;4.380;2022-11-30T17:29:53;7.30;99.90
10788;DHT22;5446;50.826;4.380;2022-11-30T17:32:19;7.30;99.90
10788;DHT22;5446;50.826;4.380;2022-11-30T17:34:45;7.30;99.90
10788;DHT22;5446;50.826;4.380;2022-11-30T17:37:11;7.30;99.90
10788;DHT22;5446;50.826;4.380;2022-11-30T17:39:39;7.30;99.90
10788;DHT22;5446;50.826;4.380;2022-11-30T17:42:04;7.20;99.90
10788;DHT22;5446;50.826;4.380;2022-11-30T17:44:30;7.20;99.90
10788;DHT22;5446;50.826;4.380;2022-11-30T17:46:56;7.20;99.90
10788;DHT22;5446;50.826;4.380;2022-11-30T17:49:22;7.20;99.90
10788;DHT22;5446;50.826;4.380;2022-11-30T17:51:47;7.30;99.90
10788;DHT22;5446;50.826;4.380;2022-11-30T17:54:13;7.30;99.90
10788;DHT22;5446;50.826;4.380;2022-11-30T17:56:39;7.30;99.90
10788;DHT22;5446;50.826;4.380;2022-11-30T17:59:05;7.30;99.90
10788;DHT22;5446;50.826;4.380;2022-11-30T18:01:31;7.30;99.90
10788;DHT22;5446;50.826;4.380;2022-11-30T18:03:56;7.30;99.90
10788;DHT22;5446;50.826;4.380;2022-11-30T18:06:23;7.30;99.90
10788;DHT22;5446;50.826;4.380;2022-11-30T18:08:49;7.20;99.90
10788;DHT22;5446;50.826;4.380;2022-11-30T18:11:20;7.20;99.90
10788;DHT22;5446;50.826;4.380;2022-11-30T18:13:50;7.10;99.90
10788;DHT22;5446;50.826;4.380;2022-11-30T18:16:25;7.10;99.90
10788;DHT22;5446;50.826;4.380;2022-11-30T18:18:52;7.00;99.90
10788;DHT22;5446;50.826;4.380;2022-11-30T18:21:19;7.00;99.90